Time;durP1;ratioP1;P1;durP2;ratioP2;P2;SDS_P1;SDS_P2;PMS_P1;PMS_P2;Temp;Humidity;BMP_temperature;BMP_pressure;BME280_temperature;BME280_humidity;BME280_pressure;Samples;Min_cycle;Max_cycle;Signal;HPM_P1;HPM_P2
2021/06/06 00:00:41;;;;;;;0.82;0.80;;;23.00;54.00;;;;;;5042458;28;20136;-53
2021/06/06 00:03:17;;;;;;;1.38;1.00;;;22.90;54.00;;;;;;5042024;28;20041;-50
2021/06/06 00:05:51;;;;;;;1.20;0.90;;;23.00;54.00;;;;;;5057676;28;20055;-52
2021/06/06 00:08:19;;;;;;;1.10;1.00;;;22.90;54.00;;;;;;5058369;28;20045;-53
2021/06/06 00:10:48;;;;;;;1.20;1.10;;;22.90;54.00;;;;;;5058353;28;20053;-52
2021/06/06 00:13:17;;;;;;;1.02;0.93;;;22.90;54.00;;;;;;5040752;28;20053;-50
2021/06/06 00:15:44;;;;;;;1.25;1.15;;;22.90;54.00;;;;;;5057168;28;20044;-53
2021/06/06 00:18:12;;;;;;;1.05;0.95;;;22.90;54.00;;;;;;5056889;28;20049;-50
2021/06/06 00:20:40;;;;;;;1.27;1.00;;;22.90;54.00;;;;;;5037615;28;20065;-51
2021/06/06 00:23:10;;;;;;;1.08;0.98;;;22.90;54.00;;;;;;5052833;28;20053;-51
2021/06/06 00:25:39;;;;;;;1.02;0.93;;;22.90;54.00;;;;;;5055961;28;20053;-50
2021/06/06 00:28:07;;;;;;;1.10;1.00;;;22.90;54.00;;;;;;5040696;28;20053;-53
2021/06/06 00:30:35;;;;;;;0.80;0.80;;;22.90;54.00;;;;;;5050903;28;20102;-52
2021/06/06 00:33:04;;;;;;;1.05;0.95;;;22.90;54.00;;;;;;5054634;28;20045;-49
2021/06/06 00:35:32;;;;;;;1.00;0.93;;;22.90;54.00;;;;;;5055554;28;20041;-49
2021/06/06 00:37:59;;;;;;;1.17;0.90;;;22.90;54.00;;;;;;5055949;28;20479;-49
2021/06/06 00:40:30;;;;;;;0.77;0.77;;;22.90;54.00;;;;;;5054814;28;20052;-48
2021/06/06 00:42:58;;;;;;;1.00;0.90;;;22.90;54.00;;;;;;5054279;28;20570;-48
2021/06/06 00:45:28;;;;;;;1.10;1.00;;;22.90;54.10;;;;;;5054738;28;20409;-52
2021/06/06 00:47:56;;;;;;;1.45;1.00;;;22.90;54.10;;;;;;5054826;28;20045;-48
2021/06/06 00:50:53;;;;;;;1.00;0.77;;;22.90;54.10;;;;;;5054618;28;20061;-48
2021/06/06 00:53:32;;;;;;;0.85;0.85;;;22.90;54.00;;;;;;5042496;28;20053;-51
2021/06/06 00:56:01;;;;;;;1.17;1.00;;;22.90;54.10;;;;;;5050375;28;20056;-49
2021/06/06 00:58:29;;;;;;;0.98;0.90;;;22.90;54.10;;;;;;5069393;28;20041;-49
2021/06/06 01:00:58;;;;;;;1.40;1.20;;;22.90;54.10;;;;;;5068456;28;20059;-48
2021/06/06 01:03:26;;;;;;;1.50;1.20;;;22.90;54.10;;;;;;5054397;28;20077;-49
2021/06/06 01:06:17;;;;;;;1.02;0.93;;;22.90;54.10;;;;;;5044504;28;20045;-50
2021/06/06 01:08:44;;;;;;;0.80;0.80;;;22.90;54.10;;;;;;5049088;28;20508;-51
2021/06/06 01:11:30;;;;;;;1.25;1.15;;;22.90;54.10;;;;;;5043577;28;20069;-50
2021/06/06 01:14:06;;;;;;;1.00;0.90;;;22.90;54.10;;;;;;5049918;28;20489;-51
2021/06/06 01:16:46;;;;;;;1.10;1.00;;;22.90;54.10;;;;;;5042397;28;20045;-51
2021/06/06 01:19:33;;;;;;;1.10;0.90;;;22.90;54.10;;;;;;5067270;28;20511;-54
2021/06/06 01:22:13;;;;;;;1.00;0.80;;;22.90;54.10;;;;;;5045737;28;20147;-49
2021/06/06 01:25:06;;;;;;;1.13;0.93;;;22.90;54.10;;;;;;5053889;28;20045;-54
2021/06/06 01:27:38;;;;;;;1.05;0.90;;;22.90;54.10;;;;;;5048390;28;20059;-51
2021/06/06 01:30:15;;;;;;;1.20;1.00;;;22.90;54.10;;;;;;5068242;28;20052;-51
2021/06/06 01:32:52;;;;;;;1.00;0.90;;;22.90;54.10;;;;;;5054917;28;20041;-51
2021/06/06 01:35:30;;;;;;;1.30;1.10;;;22.90;54.10;;;;;;5053162;28;20076;-50
2021/06/06 01:38:08;;;;;;;1.00;0.90;;;22.90;54.20;;;;;;5053707;28;20049;-52
2021/06/06 01:40:39;;;;;;;1.10;0.95;;;22.90;54.10;;;;;;5036419;28;20128;-50
2021/06/06 01:43:11;;;;;;;1.15;1.05;;;22.90;54.10;;;;;;5053132;28;20053;-50
2021/06/06 01:45:43;;;;;;;1.20;0.93;;;22.90;54.20;;;;;;5053626;28;20053;-48
2021/06/06 01:48:13;;;;;;;0.87;0.80;;;22.90;54.20;;;;;;5067291;28;20052;-50
2021/06/06 01:50:58;;;;;;;0.98;0.90;;;22.90;54.20;;;;;;5052278;28;20045;-51
2021/06/06 01:53:26;;;;;;;1.10;0.90;;;22.90;54.20;;;;;;5034693;28;20108;-48
2021/06/06 01:55:57;;;;;;;1.10;1.00;;;22.90;54.10;;;;;;5035487;28;20041;-50
2021/06/06 01:58:25;;;;;;;1.13;1.02;;;22.90;54.20;;;;;;5067772;28;20114;-48
2021/06/06 02:01:14;;;;;;;1.15;1.00;;;22.90;54.10;;;;;;5053068;28;20053;-48
2021/06/06 02:03:43;;;;;;;1.13;0.90;;;22.90;54.20;;;;;;5036968;28;20937;-49
2021/06/06 02:06:14;;;;;;;1.30;1.10;;;22.90;54.20;;;;;;5049369;28;20386;-52
2021/06/06 02:08:44;;;;;;;1.13;1.02;;;22.90;54.20;;;;;;5054124;28;20080;-50
2021/06/06 02:11:25;;;;;;;1.02;0.80;;;22.90;54.20;;;;;;5035634;28;20041;-53
2021/06/06 02:14:08;;;;;;;1.00;0.90;;;22.90;54.20;;;;;;5052404;28;20052;-52
2021/06/06 02:16:41;;;;;;;1.10;0.85;;;22.90;54.20;;;;;;5037580;28;20068;-52
2021/06/06 02:19:08;;;;;;;0.73;0.73;;;22.90;54.20;;;;;;5053774;28;20048;-51
2021/06/06 02:21:36;;;;;;;1.02;0.90;;;22.90;54.20;;;;;;5052949;28;20459;-54
2021/06/06 02:24:05;;;;;;;1.00;0.90;;;22.90;54.20;;;;;;5051859;28;20128;-53
2021/06/06 02:26:57;;;;;;;1.00;0.90;;;22.90;54.20;;;;;;5053189;28;20516;-51
2021/06/06 02:29:38;;;;;;;0.90;0.80;;;22.90;54.20;;;;;;5035553;28;20045;-52
2021/06/06 02:32:22;;;;;;;0.80;0.80;;;22.90;54.20;;;;;;5036599;28;20094;-51
2021/06/06 02:35:06;;;;;;;1.10;0.93;;;22.90;54.20;;;;;;5050247;28;20103;-53
2021/06/06 02:37:52;;;;;;;0.90;0.82;;;22.90;54.20;;;;;;5049538;28;20361;-47
2021/06/06 02:40:41;;;;;;;1.33;1.17;;;22.90;54.20;;;;;;5054085;28;20045;-50
2021/06/06 02:43:36;;;;;;;1.00;0.90;;;22.90;54.20;;;;;;5050637;28;20083;-49
2021/06/06 02:46:04;;;;;;;1.42;0.60;;;22.90;54.20;;;;;;5053824;28;20499;-50
2021/06/06 02:48:42;;;;;;;0.70;0.70;;;22.90;54.20;;;;;;5043209;28;20080;-48
2021/06/06 02:51:16;;;;;;;0.80;0.80;;;22.90;54.20;;;;;;5034563;28;20080;-49
2021/06/06 02:53:58;;;;;;;0.80;0.70;;;22.90;54.20;;;;;;5047387;28;20080;-50
2021/06/06 02:56:34;;;;;;;0.80;0.80;;;22.90;54.20;;;;;;5066745;28;20081;-52
2021/06/06 02:59:16;;;;;;;2.03;1.13;;;22.90;54.20;;;;;;5040892;28;20081;-47
2021/06/06 03:01:58;;;;;;;0.90;0.90;;;22.90;54.20;;;;;;5034799;28;20053;-52
2021/06/06 03:04:32;;;;;;;1.00;0.85;;;22.90;54.20;;;;;;5036847;28;20099;-52
2021/06/06 03:07:01;;;;;;;0.77;0.77;;;22.90;54.20;;;;;;5036721;28;20049;-52
2021/06/06 03:09:29;;;;;;;0.98;0.88;;;22.90;54.20;;;;;;5054137;28;20134;-50
2021/06/06 03:11:59;;;;;;;0.90;0.73;;;22.90;54.20;;;;;;5051259;28;20439;-47
2021/06/06 03:14:30;;;;;;;1.08;0.98;;;22.90;54.20;;;;;;5051239;28;20072;-51
2021/06/06 03:17:08;;;;;;;1.02;0.90;;;22.90;54.20;;;;;;5052221;28;20081;-53
2021/06/06 03:19:41;;;;;;;1.60;1.10;;;22.90;54.20;;;;;;5050942;28;20509;-51
2021/06/06 03:22:15;;;;;;;1.10;0.88;;;22.90;54.20;;;;;;5063211;28;20105;-50
2021/06/06 03:24:48;;;;;;;;;;;22.90;54.30;;;;;;5062584;28;20077;-51
2021/06/06 03:27:18;;;;;;;1.10;0.93;;;22.90;54.20;;;;;;5035340;28;20285;-51
2021/06/06 03:30:15;;;;;;;0.70;0.70;;;22.90;54.20;;;;;;5035823;28;20049;-51
2021/06/06 03:32:46;;;;;;;1.00;0.90;;;22.90;54.30;;;;;;5049219;28;20049;-49
2021/06/06 03:35:13;;;;;;;0.82;0.80;;;22.90;54.30;;;;;;5050636;28;20049;-48
2021/06/06 03:37:41;;;;;;;0.85;0.80;;;22.90;54.30;;;;;;5051907;28;20110;-49
2021/06/06 03:40:10;;;;;;;0.80;0.80;;;22.90;54.30;;;;;;5052723;28;20053;-51
2021/06/06 03:42:39;;;;;;;1.02;0.93;;;22.90;54.30;;;;;;5051783;28;20045;-49
2021/06/06 03:45:09;;;;;;;1.10;1.00;;;22.90;54.30;;;;;;5044147;28;20045;-51
2021/06/06 03:47:37;;;;;;;0.93;0.82;;;22.90;54.30;;;;;;5044989;28;20075;-48
2021/06/06 03:50:08;;;;;;;0.77;0.70;;;22.90;54.20;;;;;;5051475;28;20143;-52
2021/06/06 03:52:35;;;;;;;0.70;0.60;;;22.90;54.30;;;;;;5043468;28;20107;-50
2021/06/06 03:55:05;;;;;;;0.77;0.70;;;22.90;54.30;;;;;;5044984;28;20493;-48
2021/06/06 03:57:33;;;;;;;1.00;0.90;;;22.90;54.30;;;;;;5049751;28;20164;-51
2021/06/06 04:00:03;;;;;;;0.65;0.65;;;22.90;54.20;;;;;;5045692;28;20098;-49
2021/06/06 04:02:30;;;;;;;1.08;0.90;;;22.90;54.20;;;;;;5056901;28;20045;-50
2021/06/06 04:04:58;;;;;;;1.05;0.90;;;22.90;54.20;;;;;;5056704;28;20045;-49
2021/06/06 04:07:25;;;;;;;0.75;0.70;;;22.90;54.20;;;;;;5053625;28;20518;-52
2021/06/06 04:09:52;;;;;;;1.25;0.90;;;23.00;54.30;;;;;;5054111;28;20045;-47
2021/06/06 04:12:20;;;;;;;0.60;0.60;;;22.90;54.20;;;;;;5054041;28;20056;-54
2021/06/06 04:14:47;;;;;;;0.55;0.50;;;22.90;54.20;;;;;;5055250;28;20048;-52
2021/06/06 04:17:14;;;;;;;0.95;0.70;;;22.90;54.20;;;;;;5037775;28;20451;-49
2021/06/06 04:19:42;;;;;;;0.63;0.63;;;22.90;54.20;;;;;;5038097;28;20413;-50
2021/06/06 04:22:09;;;;;;;0.63;0.63;;;22.90;54.20;;;;;;5055783;28;20135;-52
2021/06/06 04:24:37;;;;;;;0.85;0.80;;;23.00;54.30;;;;;;5055288;28;20053;-48
2021/06/06 04:27:04;;;;;;;0.93;0.82;;;22.90;54.20;;;;;;5036572;28;20049;-50
2021/06/06 04:29:32;;;;;;;1.00;0.90;;;23.00;54.30;;;;;;5067777;28;20072;-52
2021/06/06 04:32:01;;;;;;;0.90;0.85;;;23.00;54.30;;;;;;5054934;28;20053;-53
2021/06/06 04:34:28;;;;;;;0.80;0.80;;;23.00;54.30;;;;;;5056084;28;20149;-50
2021/06/06 04:36:55;;;;;;;0.80;0.80;;;23.00;54.30;;;;;;5053704;28;20437;-48
2021/06/06 04:39:23;;;;;;;0.80;0.80;;;22.90;54.20;;;;;;5057216;28;20045;-48
2021/06/06 04:41:51;;;;;;;0.80;0.77;;;23.00;54.30;;;;;;5042233;28;20136;-47
2021/06/06 04:44:19;;;;;;;0.60;0.60;;;23.00;54.30;;;;;;5049455;28;20310;-50
2021/06/06 04:46:46;;;;;;;0.80;0.70;;;23.00;54.30;;;;;;5053211;28;20132;-50
2021/06/06 04:49:13;;;;;;;0.85;0.80;;;23.00;54.30;;;;;;5045975;28;20053;-51
2021/06/06 04:51:40;;;;;;;0.80;0.80;;;23.00;54.30;;;;;;5046390;28;20047;-50
2021/06/06 04:54:07;;;;;;;1.10;0.93;;;23.00;54.30;;;;;;5055286;28;20171;-52
2021/06/06 04:56:35;;;;;;;1.23;1.00;;;22.90;54.20;;;;;;5047611;28;20049;-48
2021/06/06 04:59:02;;;;;;;1.00;0.80;;;23.00;54.30;;;;;;5037896;28;20049;-49
2021/06/06 05:01:31;;;;;;;1.15;0.98;;;23.00;54.30;;;;;;5044132;28;20098;-48
2021/06/06 05:04:02;;;;;;;0.80;0.70;;;23.00;54.30;;;;;;5052811;28;20049;-51
2021/06/06 05:06:29;;;;;;;0.82;0.70;;;23.00;54.20;;;;;;5052383;28;20095;-49
2021/06/06 05:08:56;;;;;;;0.98;0.80;;;23.00;54.30;;;;;;5054939;28;20085;-51
2021/06/06 05:11:23;;;;;;;0.75;0.70;;;22.90;54.20;;;;;;5051514;28;20037;-48
2021/06/06 05:13:50;;;;;;;1.00;0.90;;;23.00;54.30;;;;;;5053186;28;20041;-50
2021/06/06 05:16:18;;;;;;;1.02;0.80;;;23.00;54.30;;;;;;5035835;28;20099;-48
2021/06/06 05:18:45;;;;;;;0.90;0.70;;;23.00;54.30;;;;;;5052130;28;20120;-52
2021/06/06 05:21:12;;;;;;;0.70;0.70;;;23.00;54.30;;;;;;5036262;28;20084;-48
2021/06/06 05:23:39;;;;;;;1.25;0.90;;;23.00;54.20;;;;;;5036615;28;20103;-49
2021/06/06 05:26:07;;;;;;;0.75;0.75;;;23.00;54.20;;;;;;5036713;28;20050;-48
2021/06/06 05:28:37;;;;;;;0.70;0.60;;;23.00;54.20;;;;;;5067934;28;20080;-48
2021/06/06 05:31:07;;;;;;;0.70;0.70;;;23.00;54.20;;;;;;5053489;28;20489;-47
2021/06/06 05:33:35;;;;;;;0.60;0.50;;;23.00;54.80;;;;;;5036744;28;20073;-51
2021/06/06 05:36:03;;;;;;;0.77;0.70;;;23.00;54.20;;;;;;5051394;28;20452;-52
2021/06/06 05:38:32;;;;;;;1.00;0.90;;;23.00;54.20;;;;;;5038562;28;20386;-54
2021/06/06 05:41:01;;;;;;;0.70;0.70;;;23.00;54.20;;;;;;5036851;28;20509;-52
2021/06/06 05:43:29;;;;;;;0.80;0.80;;;23.00;54.20;;;;;;5035705;28;20557;-54
2021/06/06 05:45:56;;;;;;;0.70;0.70;;;23.00;54.20;;;;;;5036890;28;20493;-52
2021/06/06 05:48:25;;;;;;;1.00;0.80;;;23.00;54.20;;;;;;5049015;28;20053;-54
2021/06/06 05:50:55;;;;;;;0.60;0.60;;;23.00;54.20;;;;;;5053385;28;20056;-54
2021/06/06 05:53:23;;;;;;;0.60;0.60;;;23.00;54.20;;;;;;5051990;28;20476;-54
2021/06/06 05:55:50;;;;;;;1.15;0.80;;;23.00;54.20;;;;;;5052192;28;20056;-51
2021/06/06 05:58:18;;;;;;;0.85;0.80;;;23.00;54.20;;;;;;5052924;28;20072;-53
2021/06/06 06:00:47;;;;;;;0.60;0.60;;;23.00;54.20;;;;;;5054011;28;20037;-52
2021/06/06 06:03:17;;;;;;;0.63;0.63;;;23.00;54.20;;;;;;5047115;28;20138;-52
2021/06/06 06:05:44;;;;;;;0.98;0.80;;;23.00;54.20;;;;;;5041429;28;20037;-51
2021/06/06 06:08:20;;;;;;;0.57;0.57;;;23.00;54.10;;;;;;5051930;28;20091;-49
2021/06/06 06:10:48;;;;;;;0.70;0.65;;;23.00;54.10;;;;;;5050678;28;20128;-51
2021/06/06 06:13:17;;;;;;;0.80;0.80;;;23.00;54.10;;;;;;5048519;28;20457;-51
2021/06/06 06:15:44;;;;;;;0.70;0.70;;;23.00;54.10;;;;;;5038621;28;20072;-49
2021/06/06 06:18:12;;;;;;;0.88;0.60;;;23.10;54.10;;;;;;5052094;28;20036;-52
2021/06/06 06:20:40;;;;;;;0.75;0.60;;;23.00;54.00;;;;;;5054039;28;20472;-51
2021/06/06 06:23:07;;;;;;;0.75;0.70;;;23.10;54.10;;;;;;5051299;28;20077;-53
2021/06/06 06:25:35;;;;;;;0.90;0.88;;;23.10;54.10;;;;;;5053980;28;20110;-51
2021/06/06 06:28:03;;;;;;;0.73;0.70;;;23.10;54.10;;;;;;5035075;28;20045;-53
2021/06/06 06:30:33;;;;;;;0.60;0.60;;;23.10;54.10;;;;;;5035621;28;20053;-54
2021/06/06 06:33:01;;;;;;;1.00;0.90;;;23.10;54.10;;;;;;5052911;28;20107;-53
2021/06/06 06:35:29;;;;;;;0.77;0.77;;;23.10;54.10;;;;;;5069245;28;20045;-53
2021/06/06 06:37:56;;;;;;;0.85;0.80;;;23.10;54.10;;;;;;5068705;28;20119;-54
2021/06/06 06:40:24;;;;;;;0.98;0.80;;;23.10;54.00;;;;;;5054816;28;20041;-54
2021/06/06 06:42:54;;;;;;;0.63;0.63;;;23.10;54.00;;;;;;5039316;28;20099;-54
2021/06/06 06:45:26;;;;;;;0.60;0.60;;;23.10;54.00;;;;;;5036047;28;20555;-53
2021/06/06 06:47:59;;;;;;;0.70;0.70;;;23.10;54.00;;;;;;5035877;28;20132;-52
2021/06/06 06:50:28;;;;;;;0.75;0.70;;;23.10;54.00;;;;;;5051811;28;20123;-51
2021/06/06 06:52:56;;;;;;;0.70;0.68;;;23.10;54.00;;;;;;5052051;28;20126;-53
2021/06/06 06:55:24;;;;;;;0.52;0.52;;;23.20;54.10;;;;;;5066467;28;20052;-51
2021/06/06 06:57:57;;;;;;;0.70;0.70;;;23.10;53.90;;;;;;5057302;28;20049;-52
2021/06/06 07:00:29;;;;;;;0.70;0.70;;;23.20;54.00;;;;;;5052034;28;20044;-53
2021/06/06 07:03:08;;;;;;;0.70;0.70;;;23.10;53.90;;;;;;5051249;28;20048;-51
2021/06/06 07:05:36;;;;;;;0.68;0.50;;;23.20;54.00;;;;;;5040840;28;20072;-51
2021/06/06 07:08:07;;;;;;;1.10;0.77;;;23.20;54.00;;;;;;5049326;28;20060;-50
2021/06/06 07:10:36;;;;;;;0.70;0.70;;;23.20;54.00;;;;;;5039766;28;20046;-54
2021/06/06 07:13:05;;;;;;;0.90;0.75;;;23.20;54.00;;;;;;5047324;28;20458;-50
2021/06/06 07:15:33;;;;;;;0.90;0.70;;;23.20;54.00;;;;;;5042606;28;20037;-52
2021/06/06 07:18:01;;;;;;;0.70;0.70;;;23.20;54.00;;;;;;5034590;28;20460;-51
2021/06/06 07:20:34;;;;;;;0.75;0.75;;;23.10;53.90;;;;;;5045158;28;20055;-54
2021/06/06 07:23:04;;;;;;;0.55;0.55;;;23.20;54.00;;;;;;5053322;28;20099;-49
2021/06/06 07:25:32;;;;;;;0.70;0.70;;;23.20;54.00;;;;;;5052094;28;20049;-54
2021/06/06 07:28:00;;;;;;;0.70;0.70;;;23.20;54.00;;;;;;5047383;28;20052;-49
2021/06/06 07:30:32;;;;;;;0.60;0.60;;;23.20;53.90;;;;;;5045284;28;20080;-52
2021/06/06 07:33:00;;;;;;;0.60;0.60;;;23.20;54.00;;;;;;5051301;28;20100;-50
2021/06/06 07:35:31;;;;;;;0.47;0.47;;;23.20;54.00;;;;;;5044147;28;20041;-47
2021/06/06 07:38:00;;;;;;;0.60;0.60;;;23.20;54.00;;;;;;5055793;28;20041;-49
2021/06/06 07:40:31;;;;;;;0.90;0.80;;;23.20;54.00;;;;;;5053193;28;20114;-49
2021/06/06 07:42:59;;;;;;;0.63;0.52;;;23.20;53.90;;;;;;5043258;28;20118;-48
2021/06/06 07:45:28;;;;;;;1.02;0.60;;;23.20;53.90;;;;;;5056728;28;20048;-49
2021/06/06 07:47:56;;;;;;;0.60;0.60;;;23.20;53.90;;;;;;5055763;28;20052;-49
2021/06/06 07:50:31;;;;;;;0.73;0.73;;;23.20;53.90;;;;;;5056913;28;20044;-48
2021/06/06 07:52:59;;;;;;;1.40;1.00;;;23.20;53.90;;;;;;5056478;28;20052;-49
2021/06/06 07:55:27;;;;;;;0.70;0.70;;;23.20;53.90;;;;;;5055499;28;20037;-51
2021/06/06 07:57:55;;;;;;;0.80;0.70;;;23.20;54.50;;;;;;5056361;28;20053;-48
2021/06/06 08:00:49;;;;;;;1.05;0.75;;;23.20;53.80;;;;;;5054480;28;20045;-51
2021/06/06 08:03:18;;;;;;;0.88;0.60;;;23.20;53.80;;;;;;5037371;28;20088;-50
2021/06/06 08:05:45;;;;;;;0.60;0.60;;;23.30;53.90;;;;;;5054419;28;20110;-53
2021/06/06 08:08:14;;;;;;;0.47;0.47;;;23.20;53.80;;;;;;5054986;28;20055;-53
2021/06/06 08:10:46;;;;;;;0.73;0.73;;;23.30;53.90;;;;;;5037880;28;20053;-52
2021/06/06 08:13:15;;;;;;;1.25;0.60;;;23.30;53.90;;;;;;5054769;28;20053;-53
2021/06/06 08:15:43;;;;;;;0.68;0.63;;;23.20;53.80;;;;;;5054120;28;20132;-51
2021/06/06 08:18:13;;;;;;;0.70;0.63;;;23.20;53.80;;;;;;5037845;28;20049;-51
2021/06/06 08:20:49;;;;;;;0.77;0.50;;;23.20;53.80;;;;;;5054760;28;20053;-54
2021/06/06 08:23:18;;;;;;;0.90;0.70;;;23.20;53.80;;;;;;5053240;28;20063;-54
2021/06/06 08:25:46;;;;;;;0.80;0.70;;;23.20;53.80;;;;;;5038077;28;20053;-52
2021/06/06 08:28:14;;;;;;;0.63;0.63;;;23.30;53.80;;;;;;5054542;28;20060;-54
2021/06/06 08:30:49;;;;;;;0.70;0.65;;;23.30;53.90;;;;;;5054546;28;20053;-54
2021/06/06 08:33:21;;;;;;;0.95;0.82;;;23.30;53.80;;;;;;5053994;28;20436;-55
2021/06/06 08:35:54;;;;;;;0.88;0.80;;;23.30;53.80;;;;;;5054898;28;20052;-52
2021/06/06 08:38:22;;;;;;;0.57;0.55;;;23.30;53.80;;;;;;5052559;28;20200;-52
2021/06/06 08:41:12;;;;;;;0.55;0.55;;;23.30;53.80;;;;;;5053229;28;20073;-53
2021/06/06 08:43:53;;;;;;;0.80;0.70;;;23.30;53.80;;;;;;5053843;28;20157;-50
2021/06/06 08:46:22;;;;;;;0.70;0.60;;;23.30;53.80;;;;;;5053556;28;20057;-56
2021/06/06 08:48:51;;;;;;;0.85;0.50;;;23.30;53.80;;;;;;5052341;28;20060;-52
2021/06/06 08:51:29;;;;;;;0.70;0.60;;;23.30;53.80;;;;;;5039482;28;20103;-54
2021/06/06 08:54:10;;;;;;;1.13;0.70;;;23.30;53.70;;;;;;5052298;28;20583;-54
2021/06/06 08:56:38;;;;;;;0.82;0.80;;;23.30;53.70;;;;;;5054200;28;20045;-53
2021/06/06 08:59:08;;;;;;;0.40;0.40;;;23.30;53.70;;;;;;5055734;28;20075;-52
2021/06/06 09:01:59;;;;;;;0.70;0.60;;;23.30;53.70;;;;;;5069063;28;20048;-53
2021/06/06 09:04:31;;;;;;;0.73;0.73;;;23.30;53.70;;;;;;5054358;28;20041;-57
2021/06/06 09:07:26;;;;;;;0.75;0.68;;;23.40;53.70;;;;;;5042493;28;20045;-53
2021/06/06 09:09:58;;;;;;;0.60;0.50;;;23.30;53.60;;;;;;5038119;28;20095;-53
2021/06/06 09:12:25;;;;;;;0.52;0.50;;;23.40;53.70;;;;;;5054217;28;20465;-53
2021/06/06 09:14:55;;;;;;;0.80;0.70;;;23.40;53.70;;;;;;5036782;28;20049;-49
2021/06/06 09:17:37;;;;;;;0.75;0.75;;;23.40;53.70;;;;;;5037017;28;20045;-51
2021/06/06 09:20:23;;;;;;;0.52;0.52;;;23.40;53.70;;;;;;5037366;28;20044;-54
2021/06/06 09:22:50;;;;;;;0.70;0.50;;;23.40;53.70;;;;;;5037348;28;20087;-53
2021/06/06 09:25:29;;;;;;;0.77;0.55;;;23.40;53.70;;;;;;5054183;28;20496;-52
2021/06/06 09:28:02;;;;;;;0.95;0.50;;;23.40;53.60;;;;;;5052657;28;20428;-51
2021/06/06 09:30:31;;;;;;;1.02;0.70;;;23.40;53.60;;;;;;5054724;28;20048;-51
2021/06/06 09:33:10;;;;;;;0.65;0.60;;;23.40;53.60;;;;;;5051176;28;20068;-49
2021/06/06 09:35:50;;;;;;;0.60;0.60;;;23.40;53.60;;;;;;5052320;28;20041;-51
2021/06/06 09:38:21;;;;;;;0.45;0.40;;;23.40;53.60;;;;;;5053597;28;20080;-51
2021/06/06 09:40:50;;;;;;;0.50;0.50;;;23.50;53.70;;;;;;5053613;28;20163;-49
2021/06/06 09:43:35;;;;;;;0.63;0.63;;;23.40;53.60;;;;;;5037175;28;20196;-55
2021/06/06 09:46:14;;;;;;;0.82;0.70;;;23.40;53.50;;;;;;5055540;28;20056;-55
2021/06/06 09:48:43;;;;;;;1.00;0.57;;;23.40;53.50;;;;;;5052404;28;20470;-49
2021/06/06 09:51:24;;;;;;;0.73;0.50;;;23.50;53.60;;;;;;5053303;28;20091;-53
2021/06/06 09:53:57;;;;;;;0.60;0.60;;;23.50;53.60;;;;;;5051793;28;20060;-52
2021/06/06 09:56:28;;;;;;;0.57;0.50;;;23.50;53.60;;;;;;5050393;28;20128;-56
2021/06/06 09:59:11;;;;;;;0.50;0.50;;;23.50;53.50;;;;;;5037069;28;20477;-53
2021/06/06 10:02:06;;;;;;;0.50;0.50;;;23.50;53.50;;;;;;5049443;28;20129;-51
2021/06/06 10:04:37;;;;;;;0.65;0.57;;;23.50;53.50;;;;;;5028652;28;20498;-52
2021/06/06 10:07:10;;;;;;;0.55;0.55;;;23.50;53.50;;;;;;5039598;28;20046;-51
2021/06/06 10:09:41;;;;;;;0.77;0.77;;;23.50;53.50;;;;;;5048814;28;20497;-54
2021/06/06 10:12:15;;;;;;;0.90;0.63;;;23.50;53.50;;;;;;5040553;28;20523;-51
2021/06/06 10:14:45;;;;;;;0.50;0.40;;;23.50;53.50;;;;;;5048286;28;20084;-55
2021/06/06 10:17:18;;;;;;;0.50;0.50;;;23.50;53.50;;;;;;5053064;28;20041;-54
2021/06/06 10:19:58;;;;;;;0.68;0.60;;;23.50;54.00;;;;;;5037761;28;20127;-53
2021/06/06 10:22:32;;;;;;;0.70;0.60;;;23.50;53.40;;;;;;5036691;28;20456;-52
2021/06/06 10:25:10;;;;;;;0.70;0.60;;;23.50;53.50;;;;;;5041089;28;20053;-49
2021/06/06 10:27:48;;;;;;;0.50;0.50;;;23.50;53.50;;;;;;5066908;28;20068;-54
2021/06/06 10:30:33;;;;;;;0.47;0.47;;;23.50;53.50;;;;;;5053594;28;20071;-54
2021/06/06 10:33:27;;;;;;;0.57;0.52;;;23.50;53.50;;;;;;5052703;28;20072;-53
2021/06/06 10:35:58;;;;;;;0.47;0.40;;;23.50;53.60;;;;;;5041741;28;20041;-53
2021/06/06 10:38:26;;;;;;;0.40;0.40;;;23.50;53.60;;;;;;5037496;28;20170;-52
2021/06/06 10:40:57;;;;;;;0.50;0.40;;;23.50;53.60;;;;;;5036193;28;20049;-55
2021/06/06 10:43:47;;;;;;;0.70;0.68;;;23.50;53.60;;;;;;5045275;28;20554;-51
2021/06/06 10:46:38;;;;;;;0.70;0.70;;;23.50;53.60;;;;;;5052706;28;20464;-53
2021/06/06 10:49:28;;;;;;;0.52;0.50;;;23.40;53.50;;;;;;5051142;28;20055;-53
2021/06/06 10:52:23;;;;;;;0.80;0.50;;;23.40;53.50;;;;;;5052175;28;20048;-53
2021/06/06 10:54:54;;;;;;;0.60;0.60;;;23.40;53.50;;;;;;5049549;28;20498;-55
2021/06/06 10:57:24;;;;;;;0.60;0.60;;;23.50;53.60;;;;;;5052240;28;20072;-54
2021/06/06 11:00:10;;;;;;;0.95;0.50;;;23.50;53.60;;;;;;5033781;28;20103;-53
2021/06/06 11:02:50;;;;;;;0.70;0.60;;;23.50;53.60;;;;;;5033351;28;20053;-53
2021/06/06 11:05:38;;;;;;;0.65;0.60;;;23.50;53.50;;;;;;5050417;28;20079;-54
2021/06/06 11:08:31;;;;;;;0.50;0.50;;;23.50;53.50;;;;;;5055379;28;20080;-56
2021/06/06 11:11:15;;;;;;;0.70;0.68;;;23.60;53.50;;;;;;5050102;28;20051;-51
2021/06/06 11:13:43;;;;;;;0.50;0.50;;;23.60;53.50;;;;;;5049724;28;20455;-55
2021/06/06 11:16:17;;;;;;;0.50;0.50;;;23.60;53.50;;;;;;5054971;28;20549;-55
2021/06/06 11:18:55;;;;;;;0.55;0.50;;;23.70;53.40;;;;;;5080392;28;20052;-54
2021/06/06 11:21:32;;;;;;;0.50;0.45;;;23.70;53.40;;;;;;5053382;28;20041;-53
2021/06/06 11:24:04;;;;;;;0.60;0.60;;;23.70;53.40;;;;;;5053013;28;20049;-53
2021/06/06 11:26:39;;;;;;;0.70;0.60;;;23.70;53.30;;;;;;5047069;28;20045;-54
2021/06/06 11:29:21;;;;;;;0.65;0.52;;;23.70;53.20;;;;;;5042039;28;20123;-54
2021/06/06 11:32:23;;;;;;;0.80;0.60;;;23.70;53.20;;;;;;5066601;28;20041;-52
2021/06/06 11:35:11;;;;;;;0.43;0.40;;;23.70;53.20;;;;;;5041804;28;20050;-55
2021/06/06 11:37:44;;;;;;;1.63;0.50;;;23.60;53.20;;;;;;5047816;28;20394;-55
2021/06/06 11:40:32;;;;;;;0.82;0.57;;;23.60;53.20;;;;;;5051994;28;20056;-54
2021/06/06 11:43:26;;;;;;;1.00;0.60;;;23.60;53.30;;;;;;5051582;28;20048;-55
2021/06/06 11:46:00;;;;;;;0.60;0.60;;;23.60;53.30;;;;;;5051788;28;20076;-56
2021/06/06 11:48:33;;;;;;;0.55;0.50;;;23.60;53.30;;;;;;5036241;28;20052;-54
2021/06/06 11:51:06;;;;;;;0.40;0.40;;;23.60;53.40;;;;;;5052007;28;20060;-54
2021/06/06 11:53:40;;;;;;;0.50;0.47;;;23.60;53.40;;;;;;5052616;28;20517;-53
2021/06/06 11:56:29;;;;;;;0.55;0.55;;;23.60;53.40;;;;;;5051840;28;20049;-55
2021/06/06 11:59:07;;;;;;;0.95;0.57;;;23.60;53.50;;;;;;5050337;28;20052;-49
2021/06/06 12:01:54;;;;;;;0.82;0.60;;;23.60;53.50;;;;;;5066192;28;20045;-52
2021/06/06 12:04:28;;;;;;;0.60;0.60;;;23.60;53.50;;;;;;5035166;28;20435;-55
2021/06/06 12:06:56;;;;;;;0.50;0.50;;;23.60;53.40;;;;;;5058524;28;20044;-53
2021/06/06 12:09:36;;;;;;;0.73;0.55;;;23.60;53.30;;;;;;5034114;28;20049;-49
2021/06/06 12:12:15;;;;;;;0.90;0.60;;;23.70;53.40;;;;;;5034731;28;20084;-51
2021/06/06 12:14:42;;;;;;;0.52;0.50;;;23.70;53.30;;;;;;5035955;28;20049;-51
2021/06/06 12:17:23;;;;;;;0.50;0.50;;;23.70;53.20;;;;;;5056143;28;20045;-49
2021/06/06 12:19:55;;;;;;;0.50;0.50;;;23.80;53.10;;;;;;5054561;28;20110;-50
2021/06/06 12:22:35;;;;;;;0.43;0.40;;;23.90;53.00;;;;;;5056134;28;20562;-50
2021/06/06 12:25:03;;;;;;;0.52;0.40;;;23.90;52.90;;;;;;5039382;28;20045;-51
2021/06/06 12:27:32;;;;;;;0.47;0.47;;;24.00;52.80;;;;;;5056271;28;20041;-53
2021/06/06 12:30:11;;;;;;;0.57;0.43;;;24.00;52.70;;;;;;5037904;28;20484;-52
2021/06/06 12:32:46;;;;;;;0.50;0.40;;;24.00;52.60;;;;;;5054835;28;20099;-51
2021/06/06 12:35:17;;;;;;;0.70;0.60;;;24.10;52.60;;;;;;5039741;28;20048;-54
2021/06/06 12:37:47;;;;;;;1.10;0.63;;;24.10;52.60;;;;;;5055944;28;20037;-54
2021/06/06 12:40:20;;;;;;;0.60;0.60;;;24.10;52.50;;;;;;5039673;28;20064;-53
2021/06/06 12:42:49;;;;;;;0.40;0.40;;;24.10;52.60;;;;;;5038529;28;20073;-54
2021/06/06 12:45:19;;;;;;;0.60;0.55;;;24.10;52.50;;;;;;5054539;28;20578;-53
2021/06/06 12:48:12;;;;;;;0.50;0.50;;;24.10;52.50;;;;;;5040656;28;20041;-51
2021/06/06 12:50:42;;;;;;;0.70;0.50;;;24.10;52.40;;;;;;5054195;28;20760;-52
2021/06/06 12:53:16;;;;;;;0.73;0.50;;;24.20;52.40;;;;;;5054421;28;20500;-53
2021/06/06 12:55:45;;;;;;;0.40;0.40;;;24.20;52.40;;;;;;5038052;28;20468;-56
2021/06/06 12:58:15;;;;;;;0.50;0.50;;;24.30;52.30;;;;;;5053424;28;20102;-55
2021/06/06 13:00:52;;;;;;;0.50;0.50;;;24.20;52.20;;;;;;5055054;28;20044;-55
2021/06/06 13:03:19;;;;;;;0.50;0.45;;;24.30;52.20;;;;;;5034642;28;20049;-53
2021/06/06 13:05:50;;;;;;;0.57;0.57;;;24.30;52.20;;;;;;5067822;28;20102;-56
2021/06/06 13:08:39;;;;;;;0.40;0.40;;;24.30;52.70;;;;;;5053536;28;20051;-50
2021/06/06 13:11:18;;;;;;;0.30;0.30;;;24.30;52.10;;;;;;5037438;28;20071;-54
2021/06/06 13:14:04;;;;;;;0.40;0.35;;;24.30;52.10;;;;;;5037382;28;20051;-54
2021/06/06 13:16:39;;;;;;;0.45;0.45;;;24.30;52.10;;;;;;5039939;28;20479;-52
2021/06/06 13:19:16;;;;;;;0.50;0.50;;;24.30;52.20;;;;;;5054129;28;20041;-49